Terminal Aerodrome Forecast
Issued by NWS Charleston, WV

Current Version | Previous Version | Text Only | Print | Product List | Glossary Off
Versions: 1 2 3 4 5 6 7 8 9 10 11 12 13 14 15 16 17 18 19 20 21 22

775
FTUS41 KRLX 191507 AAA
TAFHTS
TAF AMD
KHTS 191507Z 1915/2012 26004KT P6SM SCT015 BKN020
      TEMPO 1915/1916 BKN015
     FM191700 28009G16KT P6SM SCT040
     FM200100 25003KT P6SM SCT050=

USA.gov is the U.S. government's official web portal to all federal, state and local government web resources and services.